KAFJ Airport (Washington County) Information

FAA: AFJ - ICAO: KAFJ

KAFJ Airport Location

State Pennsylvania
County Washington
City Washington
KAFJ Airport is 3 miles southwest of Washington, PA.
Latitude 40-08-11.3000N
Longitude 080-17-24.7000W
Elevation 1,183ft

KAFJ Airport METARs

METAR KAFJ 262256Z AUTO 27008KT 9SM -SN OVC033 M02/M07 A3007 RMK AO2 SNB04 SLP196 P0000 T10221072 FZRANO
Altimeter 30.07"
Temperature -2.2°C (28.0°F)
Wind 270° at 8KT
Clouds overcast at 3,300ft
Visibility 9.0mi
Time observed: 2021-11-26T22:56:00Z

KAFJ Airport Details

Status Operational
Activation October 1947
Ownership Public
Usage Public
Chart DETROIT
ATC on-site No
Beacon schedule sunset-sunrise
Beacon color clear green

KAFJ Airport Contacts

Owner WASHINGTON COUNTY
Owner address 100 WEST BEAU ST, WASHINGTON, PA 15301
Owner phone 724-228-6811
Manager RON COOLBAUGH
Manager address 5950 SR 6, TUNKHANNOCK, PA 18657
Manager phone 570-996-1139

KAFJ Airport (Washington County) Radio Frequencies

KAFJ (Airport) Radio Frequencies

UNICOM 122.975
Common traffic advisory frequency (CTAF) 122.975